Time;durP1;ratioP1;P1;durP2;ratioP2;P2;SDS_P1;SDS_P2;PMS_P1;PMS_P2;Temp;Humidity;BMP_temperature;BMP_pressure;BME280_temperature;BME280_humidity;BME280_pressure;Samples;Min_cycle;Max_cycle;Signal;HPM_P1;HPM_P2
2023/09/19 00:01:19;;;;;;;5.07;1.50;;;21.50;81.80;;;;;;4013776;29;20508;-60
2023/09/19 00:04:01;;;;;;;5.43;1.45;;;21.50;81.60;;;;;;3991759;29;20065;-59
2023/09/19 00:06:44;;;;;;;5.53;1.95;;;21.50;81.50;;;;;;4012909;29;20105;-60
2023/09/19 00:09:27;;;;;;;8.00;2.05;;;21.50;82.40;;;;;;4013274;29;20089;-58
2023/09/19 00:12:09;;;;;;;7.15;1.67;;;21.50;81.50;;;;;;4013541;29;20067;-58
2023/09/19 00:14:51;;;;;;;8.18;2.15;;;21.50;81.40;;;;;;4013325;29;20401;-58
2023/09/19 00:17:34;;;;;;;3.50;1.80;;;21.50;81.40;;;;;;4014063;29;20077;-58
2023/09/19 00:20:17;;;;;;;6.90;2.00;;;21.50;81.90;;;;;;4013261;29;20064;-58
2023/09/19 00:22:59;;;;;;;5.55;1.77;;;21.50;82.20;;;;;;4002433;29;20052;-58
2023/09/19 00:25:40;;;;;;;5.05;2.03;;;21.50;82.10;;;;;;4013739;29;20112;-58
2023/09/19 00:28:21;;;;;;;3.83;1.85;;;21.40;82.20;;;;;;4013748;29;20667;-58
2023/09/19 00:31:02;;;;;;;6.95;1.70;;;21.40;81.50;;;;;;4013279;29;20060;-58
2023/09/19 00:33:48;;;;;;;4.93;1.70;;;21.40;81.20;;;;;;4013139;29;20056;-58
2023/09/19 00:36:29;;;;;;;6.70;1.48;;;21.40;80.60;;;;;;4013061;29;20052;-58
2023/09/19 00:39:11;;;;;;;4.95;1.73;;;21.40;81.80;;;;;;4012445;29;20064;-57
2023/09/19 00:41:52;;;;;;;;;;;21.40;80.80;;;;;;3998995;29;20516;-57
2023/09/19 00:44:34;;;;;;;5.82;1.58;;;21.30;80.60;;;;;;3998372;29;19988;-58
2023/09/19 00:47:17;;;;;;;6.82;2.05;;;21.30;81.60;;;;;;3997969;29;20057;-58
2023/09/19 00:50:00;;;;;;;6.38;2.08;;;21.30;80.90;;;;;;4003686;29;20506;-58
2023/09/19 00:52:42;;;;;;;2.92;1.50;;;21.30;80.40;;;;;;4002322;29;20397;-58
2023/09/19 00:55:25;;;;;;;5.70;1.63;;;21.30;80.20;;;;;;4012870;29;20068;-59
2023/09/19 00:58:07;;;;;;;5.70;1.83;;;21.30;79.30;;;;;;4012306;29;20693;-59
2023/09/19 01:00:49;;;;;;;6.40;1.85;;;21.20;79.70;;;;;;4013381;29;20109;-59
2023/09/19 01:03:30;;;;;;;6.45;1.55;;;21.20;79.10;;;;;;4012844;29;20104;-59
2023/09/19 01:06:13;;;;;;;5.25;1.77;;;21.20;79.20;;;;;;4012962;29;20071;-59
2023/09/19 01:08:55;;;;;;;6.47;1.48;;;21.20;79.20;;;;;;4011953;29;20056;-58
2023/09/19 01:11:41;;;;;;;4.18;1.50;;;21.20;78.90;;;;;;4001714;29;20076;-59
2023/09/19 01:14:31;;;;;;;4.32;1.48;;;21.20;78.50;;;;;;4013002;29;20142;-59
2023/09/19 01:17:22;;;;;;;5.22;1.90;;;21.10;78.30;;;;;;4012977;29;20056;-59
2023/09/19 01:20:20;;;;;;;5.60;1.92;;;21.10;78.70;;;;;;4012058;29;20626;-58
2023/09/19 01:23:11;;;;;;;3.55;1.60;;;21.10;78.20;;;;;;4011068;29;20521;-58
2023/09/19 01:26:08;;;;;;;4.78;1.63;;;21.10;78.10;;;;;;4011566;29;20056;-59
2023/09/19 01:29:13;;;;;;;5.63;1.50;;;21.10;77.30;;;;;;3999436;29;20244;-58
2023/09/19 01:31:58;;;;;;;7.07;1.42;;;21.10;77.60;;;;;;4010848;29;20144;-59
2023/09/19 01:34:48;;;;;;;7.50;2.15;;;21.10;78.30;;;;;;4011963;29;20109;-58
2023/09/19 01:37:29;;;;;;;7.55;1.50;;;21.00;77.80;;;;;;4001635;29;20056;-60
2023/09/19 01:40:16;;;;;;;;;;;21.10;77.60;;;;;;3990467;29;20190;-57
2023/09/19 01:43:06;;;;;;;6.80;1.50;;;21.00;77.70;;;;;;4012705;29;19979;-58
2023/09/19 01:45:56;;;;;;;5.22;1.73;;;21.00;77.70;;;;;;4012762;29;20060;-59
2023/09/19 01:48:47;;;;;;;5.82;2.00;;;21.00;77.20;;;;;;4010875;29;20425;-59
2023/09/19 01:51:34;;;;;;;2.75;1.50;;;20.90;75.80;;;;;;4012566;29;20084;-58
2023/09/19 01:54:21;;;;;;;7.47;2.25;;;20.90;76.00;;;;;;4011806;29;20092;-59
2023/09/19 01:57:09;;;;;;;4.60;1.73;;;20.90;76.10;;;;;;3997029;29;20190;-58
2023/09/19 01:59:57;;;;;;;4.90;1.65;;;21.00;76.50;;;;;;3995850;29;20116;-59
2023/09/19 02:02:39;;;;;;;4.60;1.48;;;20.90;76.30;;;;;;3996942;29;20069;-59
2023/09/19 02:05:27;;;;;;;4.65;1.80;;;21.00;76.70;;;;;;4012453;29;20061;-60
2023/09/19 02:08:08;;;;;;;5.20;2.00;;;20.90;75.90;;;;;;4012392;29;20065;-61
2023/09/19 02:10:52;;;;;;;8.45;2.13;;;20.90;76.40;;;;;;4012213;29;20052;-60
2023/09/19 02:13:33;;;;;;;4.82;1.75;;;20.90;76.40;;;;;;4011048;29;20061;-60
2023/09/19 02:16:20;;;;;;;5.90;1.98;;;20.90;76.40;;;;;;4001180;29;20060;-60
2023/09/19 02:19:05;;;;;;;6.28;2.00;;;20.90;77.10;;;;;;4000519;29;20157;-60
2023/09/19 02:21:48;;;;;;;6.15;1.63;;;20.90;75.60;;;;;;4011682;29;20044;-59
2023/09/19 02:24:29;;;;;;;5.47;1.70;;;20.90;75.90;;;;;;4010701;29;20068;-59
2023/09/19 02:27:12;;;;;;;4.50;1.70;;;20.80;75.50;;;;;;4011710;29;20136;-60
2023/09/19 02:29:54;;;;;;;5.70;1.92;;;20.80;75.30;;;;;;4011591;29;20076;-59
2023/09/19 02:32:38;;;;;;;4.60;1.75;;;20.80;75.40;;;;;;4010987;29;20166;-59
2023/09/19 02:35:20;;;;;;;5.65;1.65;;;20.80;75.50;;;;;;4000404;29;20185;-59
2023/09/19 02:38:05;;;;;;;5.15;1.83;;;20.80;75.40;;;;;;4010897;29;20060;-60
2023/09/19 02:40:47;;;;;;;5.13;1.40;;;20.80;75.50;;;;;;4000826;29;20060;-59
2023/09/19 02:43:28;;;;;;;3.38;1.60;;;20.80;75.20;;;;;;4011657;29;20052;-60
2023/09/19 02:46:11;;;;;;;7.03;1.92;;;20.80;74.80;;;;;;4012134;29;20129;-59
2023/09/19 02:48:54;;;;;;;4.20;1.73;;;20.80;74.30;;;;;;4011282;29;20614;-59
2023/09/19 02:51:35;;;;;;;5.88;1.83;;;20.80;74.00;;;;;;4010311;29;20225;-59
2023/09/19 02:54:17;;;;;;;4.47;1.30;;;20.80;74.00;;;;;;4011984;29;20454;-59
2023/09/19 02:56:59;;;;;;;3.10;1.50;;;20.70;74.40;;;;;;4000253;29;20060;-60
2023/09/19 02:59:40;;;;;;;;;;;20.70;74.00;;;;;;4011791;29;20812;-60
2023/09/19 03:02:24;;;;;;;6.82;1.70;;;20.70;74.30;;;;;;4000513;29;19935;-60
2023/09/19 03:05:07;;;;;;;10.73;1.83;;;20.70;74.70;;;;;;4010824;29;20118;-60
2023/09/19 03:07:50;;;;;;;4.65;2.38;;;20.70;74.90;;;;;;4010903;29;20409;-64
2023/09/19 03:10:33;;;;;;;5.97;1.90;;;20.70;74.30;;;;;;4010601;29;20520;-59
2023/09/19 03:13:15;;;;;;;5.72;1.70;;;20.60;74.10;;;;;;4002879;29;20143;-62
2023/09/19 03:15:58;;;;;;;7.18;2.30;;;20.60;74.80;;;;;;4013361;29;20097;-59
2023/09/19 03:18:40;;;;;;;4.10;1.98;;;20.60;75.40;;;;;;4013816;29;20197;-58
2023/09/19 03:21:22;;;;;;;7.82;2.03;;;20.60;75.10;;;;;;4013729;29;20409;-50
2023/09/19 03:24:04;;;;;;;6.72;2.00;;;20.60;75.50;;;;;;4014834;29;20596;-60
2023/09/19 03:26:47;;;;;;;8.82;2.30;;;20.60;75.80;;;;;;4013293;29;20060;-59
2023/09/19 03:29:29;;;;;;;5.25;1.88;;;20.60;75.70;;;;;;4022624;29;20068;-60
2023/09/19 03:32:12;;;;;;;4.28;1.60;;;20.60;75.30;;;;;;4013841;29;20060;-60
2023/09/19 03:34:54;;;;;;;3.45;1.40;;;20.60;74.50;;;;;;4012592;29;20056;-60
2023/09/19 03:37:35;;;;;;;;;;;20.60;75.00;;;;;;4014587;29;20508;-60
2023/09/19 03:40:17;;;;;;;4.47;1.73;;;20.60;75.10;;;;;;4013097;29;19934;-60
2023/09/19 03:43:02;;;;;;;10.35;2.72;;;20.60;76.20;;;;;;4012940;29;20461;-60
2023/09/19 03:45:44;;;;;;;6.93;2.25;;;20.50;75.20;;;;;;4013327;29;20154;-60
2023/09/19 03:48:25;;;;;;;7.75;2.88;;;20.50;75.40;;;;;;4002530;29;20408;-60
2023/09/19 03:51:06;;;;;;;8.02;2.58;;;20.50;75.10;;;;;;3987367;29;20512;-60
2023/09/19 03:53:49;;;;;;;8.07;1.98;;;20.50;75.30;;;;;;3987354;29;20053;-59
2023/09/19 03:56:31;;;;;;;4.30;1.90;;;20.50;75.90;;;;;;4001047;29;20057;-59
2023/09/19 03:59:13;;;;;;;4.53;1.98;;;20.50;75.90;;;;;;4002519;29;20068;-59
2023/09/19 04:01:56;;;;;;;4.40;1.70;;;20.50;75.90;;;;;;4002183;29;20056;-60
2023/09/19 04:04:37;;;;;;;4.35;1.70;;;20.50;75.70;;;;;;4013550;29;20086;-60
2023/09/19 04:07:22;;;;;;;5.20;1.45;;;20.50;76.10;;;;;;4012481;29;20070;-59
2023/09/19 04:10:04;;;;;;;4.63;1.98;;;20.50;75.90;;;;;;4013367;29;20060;-60
2023/09/19 04:12:52;;;;;;;6.40;1.73;;;20.50;75.70;;;;;;4013028;29;20061;-60
2023/09/19 04:15:35;;;;;;;4.57;2.10;;;20.50;75.70;;;;;;4013778;29;20056;-60
2023/09/19 04:18:16;;;;;;;5.47;2.00;;;20.50;76.10;;;;;;4002647;29;20164;-60
2023/09/19 04:20:57;;;;;;;4.75;1.92;;;20.40;75.60;;;;;;4002620;29;20503;-60
2023/09/19 04:23:39;;;;;;;8.30;2.42;;;20.40;75.70;;;;;;4013559;29;20152;-60
2023/09/19 04:26:21;;;;;;;9.15;2.28;;;20.40;76.80;;;;;;4002100;29;20465;-60
2023/09/19 04:29:03;;;;;;;3.38;1.90;;;20.40;76.30;;;;;;4014015;29;20453;-61
2023/09/19 04:31:45;;;;;;;9.07;2.83;;;20.40;76.50;;;;;;4013531;29;20077;-60
2023/09/19 04:34:27;;;;;;;6.45;2.25;;;20.40;77.50;;;;;;4002503;29;20508;-60
2023/09/19 04:37:08;;;;;;;5.50;1.95;;;20.40;76.90;;;;;;4003344;29;20072;-60
2023/09/19 04:39:49;;;;;;;4.40;1.88;;;20.40;76.70;;;;;;4013392;29;20052;-60
2023/09/19 04:42:30;;;;;;;3.85;1.58;;;20.40;76.80;;;;;;4012996;29;20076;-60
2023/09/19 04:45:12;;;;;;;5.85;1.73;;;20.40;77.10;;;;;;4012895;29;20417;-61
2023/09/19 04:47:54;;;;;;;;;;;20.40;77.10;;;;;;4013540;29;20052;-58
2023/09/19 04:50:34;;;;;;;6.50;1.88;;;20.40;77.20;;;;;;4014081;29;19951;-59
2023/09/19 04:53:16;;;;;;;7.10;1.55;;;20.40;77.10;;;;;;4002436;29;20136;-59
2023/09/19 04:55:58;;;;;;;5.53;2.05;;;20.40;76.80;;;;;;4013727;29;20108;-59
2023/09/19 04:58:39;;;;;;;5.18;1.63;;;20.40;77.00;;;;;;4012969;29;20064;-58
2023/09/19 05:01:22;;;;;;;4.85;1.90;;;20.40;77.20;;;;;;4013406;29;20101;-59
2023/09/19 05:04:05;;;;;;;5.50;1.90;;;20.40;77.10;;;;;;4004513;29;20059;-58
2023/09/19 05:06:46;;;;;;;7.15;1.80;;;20.30;77.00;;;;;;4005549;29;20166;-58
2023/09/19 05:09:27;;;;;;;;;;;20.30;77.30;;;;;;4013691;29;20075;-60
2023/09/19 05:12:10;;;;;;;4.03;1.80;;;20.30;77.20;;;;;;4001935;29;19931;-59
2023/09/19 05:14:51;;;;;;;4.40;1.92;;;20.30;77.30;;;;;;4012964;29;20056;-60
2023/09/19 05:17:32;;;;;;;7.70;2.35;;;20.30;77.40;;;;;;4012860;29;20052;-59
2023/09/19 05:20:24;;;;;;;9.18;2.80;;;20.30;78.20;;;;;;4012977;29;20063;-57
2023/09/19 05:23:07;;;;;;;4.45;2.00;;;20.30;79.00;;;;;;4012264;29;20064;-60
2023/09/19 05:25:49;;;;;;;4.47;1.73;;;20.30;78.70;;;;;;4012566;29;20061;-60
2023/09/19 05:28:32;;;;;;;4.18;1.58;;;20.30;78.30;;;;;;4001060;29;20092;-60
2023/09/19 05:31:12;;;;;;;8.00;2.63;;;20.30;78.10;;;;;;4012023;29;20060;-59
2023/09/19 05:33:54;;;;;;;4.75;2.42;;;20.30;78.00;;;;;;4011577;29;20069;-59
2023/09/19 05:36:37;;;;;;;3.70;1.77;;;20.30;78.30;;;;;;4012696;29;20052;-60
2023/09/19 05:39:17;;;;;;;3.17;1.63;;;20.30;78.40;;;;;;4008647;29;20091;-60
2023/09/19 05:42:00;;;;;;;4.50;1.70;;;20.30;78.40;;;;;;4012537;29;20064;-59
2023/09/19 05:44:40;;;;;;;3.80;1.50;;;20.30;78.50;;;;;;4011930;29;20064;-59
2023/09/19 05:47:22;;;;;;;4.72;2.03;;;20.30;78.50;;;;;;4012571;29;20425;-59
2023/09/19 05:50:03;;;;;;;6.53;1.95;;;20.20;78.80;;;;;;4012401;29;20105;-60
2023/09/19 05:52:52;;;;;;;6.28;2.17;;;20.20;79.10;;;;;;4000262;29;20097;-61
2023/09/19 05:55:35;;;;;;;3.47;1.88;;;20.30;79.10;;;;;;4002679;29;20052;-57
2023/09/19 05:58:17;;;;;;;6.10;2.17;;;20.30;79.90;;;;;;4011980;29;20061;-58
2023/09/19 06:00:59;;;;;;;4.22;2.00;;;20.30;80.60;;;;;;4011687;29;20446;-57
2023/09/19 06:03:40;;;;;;;;;;;20.30;80.30;;;;;;4012487;29;20129;-57
2023/09/19 06:06:24;;;;;;;6.80;2.20;;;20.30;80.30;;;;;;4012006;29;20391;-57
2023/09/19 06:09:08;;;;;;;7.20;2.20;;;20.30;80.40;;;;;;4011902;29;20052;-58
2023/09/19 06:11:49;;;;;;;3.90;1.70;;;20.20;80.10;;;;;;4011891;29;20401;-57
2023/09/19 06:14:30;;;;;;;7.90;1.90;;;20.20;80.00;;;;;;4011686;29;20056;-58
2023/09/19 06:17:12;;;;;;;7.97;2.03;;;20.20;79.90;;;;;;4011486;29;20417;-58
2023/09/19 06:19:53;;;;;;;5.03;2.55;;;20.20;79.70;;;;;;4011309;29;20084;-59
2023/09/19 06:22:34;;;;;;;5.95;2.10;;;20.20;79.60;;;;;;4004940;29;20128;-58
2023/09/19 06:25:19;;;;;;;;;;;20.20;80.40;;;;;;4012185;29;20141;-58
2023/09/19 06:28:05;;;;;;;7.03;1.73;;;20.20;79.50;;;;;;4011472;29;19966;-58
2023/09/19 06:30:46;;;;;;;3.95;1.48;;;20.20;79.40;;;;;;4011390;29;20057;-57
2023/09/19 06:33:31;;;;;;;7.80;1.50;;;20.10;79.00;;;;;;4012054;29;20052;-58
2023/09/19 06:36:12;;;;;;;8.25;2.22;;;20.10;78.80;;;;;;4012096;29;20061;-57
2023/09/19 06:38:53;;;;;;;8.38;1.95;;;20.10;78.70;;;;;;4014561;29;20107;-58
2023/09/19 06:41:36;;;;;;;6.82;2.17;;;20.10;78.20;;;;;;3996686;29;20664;-57
2023/09/19 06:44:21;;;;;;;3.97;1.67;;;20.10;78.30;;;;;;4019611;29;20059;-58
2023/09/19 06:47:03;;;;;;;5.15;1.90;;;20.10;78.20;;;;;;4023397;29;20136;-58
2023/09/19 06:49:45;;;;;;;6.07;2.03;;;20.10;79.00;;;;;;4011349;29;20064;-58
2023/09/19 06:52:25;;;;;;;13.52;2.90;;;20.10;78.20;;;;;;4000364;29;20525;-59
2023/09/19 06:55:07;;;;;;;4.65;1.80;;;20.10;77.90;;;;;;4000724;29;20076;-58
2023/09/19 06:57:49;;;;;;;7.90;1.90;;;20.00;77.50;;;;;;4011147;29;20068;-59
2023/09/19 07:00:32;;;;;;;5.15;1.48;;;20.00;77.40;;;;;;4002292;29;20065;-58
2023/09/19 07:03:16;;;;;;;7.03;2.17;;;20.00;77.30;;;;;;3996508;29;20102;-58
2023/09/19 07:05:59;;;;;;;4.88;2.00;;;20.00;77.50;;;;;;3996123;29;20069;-58
2023/09/19 07:08:40;;;;;;;8.48;2.47;;;20.00;77.50;;;;;;4012229;29;20068;-58
2023/09/19 07:11:23;;;;;;;5.78;1.83;;;20.00;77.40;;;;;;4012207;29;20194;-58
2023/09/19 07:14:06;;;;;;;8.75;2.42;;;20.00;77.70;;;;;;4011178;29;20407;-58
2023/09/19 07:16:50;;;;;;;10.57;2.08;;;20.00;78.00;;;;;;4011760;29;20057;-58
2023/09/19 07:19:31;;;;;;;10.55;2.08;;;20.00;78.00;;;;;;4011284;29;20080;-58
2023/09/19 07:22:13;;;;;;;6.00;2.30;;;20.00;78.20;;;;;;3995557;29;20057;-58
2023/09/19 07:24:53;;;;;;;;;;;20.00;78.30;;;;;;4000259;29;20064;-58
2023/09/19 07:27:34;;;;;;;9.13;2.35;;;20.00;78.30;;;;;;4011751;29;20288;-57
2023/09/19 07:30:26;;;;;;;7.97;2.70;;;20.00;78.40;;;;;;4001897;29;20556;-58
2023/09/19 07:33:11;;;;;;;10.95;1.83;;;20.10;78.40;;;;;;4011828;29;20720;-58
2023/09/19 07:35:52;;;;;;;8.10;2.10;;;20.00;78.30;;;;;;4011160;29;20060;-58
2023/09/19 07:38:35;;;;;;;7.75;2.40;;;20.10;78.20;;;;;;4011184;29;20105;-58
2023/09/19 07:41:16;;;;;;;9.25;2.42;;;20.00;77.90;;;;;;4011228;29;20614;-57
2023/09/19 07:43:57;;;;;;;7.20;2.25;;;20.10;78.20;;;;;;4011359;29;20057;-56
2023/09/19 07:46:42;;;;;;;6.97;2.40;;;20.10;78.00;;;;;;4011511;29;20513;-58
2023/09/19 07:49:23;;;;;;;8.15;2.38;;;20.00;77.90;;;;;;4010844;29;20097;-58
2023/09/19 07:52:05;;;;;;;3.30;1.50;;;20.00;77.60;;;;;;4010906;29;20117;-58
2023/09/19 07:54:47;;;;;;;8.88;1.85;;;20.00;77.70;;;;;;4011147;29;20060;-60
2023/09/19 07:57:30;;;;;;;9.15;2.47;;;20.00;77.60;;;;;;4011918;29;20195;-59
2023/09/19 08:00:11;;;;;;;5.95;2.03;;;20.00;77.60;;;;;;4014052;29;20101;-58
2023/09/19 08:02:57;;;;;;;6.05;1.88;;;20.00;77.60;;;;;;4014098;29;20397;-58
2023/09/19 08:05:45;;;;;;;7.85;1.67;;;20.10;77.40;;;;;;4013280;29;20424;-57
2023/09/19 08:08:26;;;;;;;9.02;2.67;;;20.00;77.20;;;;;;4013321;29;20535;-57
2023/09/19 08:11:11;;;;;;;6.43;2.10;;;20.00;76.80;;;;;;4004631;29;20053;-57
2023/09/19 08:13:52;;;;;;;7.28;2.55;;;20.00;76.70;;;;;;4013729;29;20109;-57
2023/09/19 08:16:33;;;;;;;7.15;2.05;;;20.00;76.80;;;;;;4013962;29;20061;-56
2023/09/19 08:19:23;;;;;;;6.78;2.40;;;20.00;76.80;;;;;;4000763;29;20068;-58
2023/09/19 08:22:10;;;;;;;6.97;2.20;;;20.00;77.00;;;;;;4014433;29;20052;-48
2023/09/19 08:24:51;;;;;;;7.20;2.05;;;20.00;77.10;;;;;;4011411;29;20064;-54
2023/09/19 08:27:32;;;;;;;8.50;1.77;;;20.10;77.70;;;;;;4013786;29;20053;-53
2023/09/19 08:30:14;;;;;;;;;;;20.10;77.70;;;;;;4014094;29;20055;-57
2023/09/19 08:32:59;;;;;;;6.85;1.25;;;20.20;77.70;;;;;;4010496;29;20307;-53
2023/09/19 08:35:42;;;;;;;11.93;1.20;;;20.20;77.50;;;;;;4013229;29;20056;-51
2023/09/19 08:38:23;;;;;;;4.40;1.50;;;20.30;77.30;;;;;;4012050;29;20052;-49
2023/09/19 08:41:08;;;;;;;6.00;1.50;;;20.30;77.10;;;;;;4013288;29;20066;-53
2023/09/19 08:44:01;;;;;;;5.18;1.73;;;20.30;76.90;;;;;;4002714;29;20497;-53
2023/09/19 08:46:44;;;;;;;7.85;1.85;;;20.30;76.50;;;;;;4012763;29;20416;-60
2023/09/19 08:49:33;;;;;;;5.00;1.35;;;20.30;76.30;;;;;;4013576;29;20409;-59
2023/09/19 08:52:29;;;;;;;4.47;1.35;;;20.40;76.20;;;;;;4012101;29;20561;-58
2023/09/19 08:55:19;;;;;;;6.47;2.08;;;20.40;76.00;;;;;;3997939;29;20549;-59
2023/09/19 08:58:04;;;;;;;6.85;2.10;;;20.40;76.00;;;;;;4007965;29;20056;-55
2023/09/19 09:00:49;;;;;;;5.43;1.45;;;20.40;76.00;;;;;;4013025;29;20072;-57
2023/09/19 09:03:35;;;;;;;10.70;2.65;;;20.40;75.70;;;;;;4013746;29;20071;-50
2023/09/19 09:06:16;;;;;;;10.35;2.35;;;20.40;75.70;;;;;;4013237;29;20064;-53
2023/09/19 09:09:05;;;;;;;5.72;1.90;;;20.40;75.70;;;;;;4011858;29;20185;-56
2023/09/19 09:11:50;;;;;;;4.85;1.63;;;20.50;75.80;;;;;;4013199;29;20081;-52
2023/09/19 09:14:31;;;;;;;16.83;4.18;;;20.50;76.60;;;;;;4012923;29;20191;-49
2023/09/19 09:17:12;;;;;;;4.00;1.40;;;20.50;75.30;;;;;;4012356;29;20104;-57
2023/09/19 09:19:53;;;;;;;6.75;2.25;;;20.50;74.90;;;;;;4012140;29;20397;-56
2023/09/19 09:22:36;;;;;;;11.20;2.67;;;20.50;74.90;;;;;;4011726;29;20136;-53
2023/09/19 09:25:19;;;;;;;16.30;4.15;;;20.50;74.90;;;;;;4010752;29;20056;-53
2023/09/19 09:28:02;;;;;;;8.05;2.40;;;20.50;75.00;;;;;;4010535;29;20206;-50
2023/09/19 09:30:43;;;;;;;8.18;2.92;;;20.50;75.10;;;;;;4012550;29;20507;-53
2023/09/19 09:33:24;;;;;;;5.70;1.83;;;20.50;75.20;;;;;;4011782;29;20504;-50
2023/09/19 09:36:08;;;;;;;10.60;2.78;;;20.50;75.30;;;;;;4008616;29;20191;-52
2023/09/19 09:38:49;;;;;;;41.70;12.18;;;20.60;75.40;;;;;;4012141;29;20117;-55
2023/09/19 09:41:39;;;;;;;9.13;3.13;;;20.60;75.40;;;;;;4012699;29;20088;-53
2023/09/19 09:44:20;;;;;;;7.45;1.75;;;20.60;75.40;;;;;;4012273;29;20052;-50
2023/09/19 09:50:17;;;;;;;12.15;3.55;;;20.60;75.00;;;;;;4011575;29;20417;-57
2023/09/19 09:53:06;;;;;;;8.23;2.58;;;20.70;75.10;;;;;;3999963;29;20136;-55
2023/09/19 09:56:06;;;;;;;6.20;1.85;;;20.70;74.90;;;;;;4012288;29;20557;-54
2023/09/19 09:58:54;;;;;;;8.68;2.70;;;20.70;74.60;;;;;;4011348;29;20095;-54
2023/09/19 10:01:48;;;;;;;8.77;2.17;;;20.70;74.30;;;;;;4012092;29;20497;-54
2023/09/19 10:04:35;;;;;;;6.97;2.13;;;20.80;74.00;;;;;;4011513;29;20068;-54
2023/09/19 10:07:27;;;;;;;10.05;2.15;;;20.80;73.70;;;;;;4011195;29;20052;-55
2023/09/19 10:10:16;;;;;;;7.95;2.90;;;20.80;73.40;;;;;;4011765;29;20061;-56
2023/09/19 10:13:02;;;;;;;10.10;2.13;;;20.80;73.20;;;;;;4012875;29;20056;-54
2023/09/19 10:15:50;;;;;;;9.07;2.38;;;20.80;73.20;;;;;;4012742;29;20056;-56
2023/09/19 10:18:38;;;;;;;7.10;2.20;;;20.80;73.50;;;;;;4011532;29;20445;-54
2023/09/19 10:21:22;;;;;;;6.43;1.95;;;20.80;73.60;;;;;;4000711;29;20508;-56
2023/09/19 10:24:08;;;;;;;12.57;3.42;;;20.80;73.60;;;;;;4012540;29;20141;-54
2023/09/19 10:26:50;;;;;;;11.68;2.42;;;20.80;73.50;;;;;;4001030;29;20104;-56
2023/09/19 10:29:36;;;;;;;8.27;2.55;;;20.80;73.50;;;;;;4012544;29;20053;-55
2023/09/19 10:32:20;;;;;;;10.43;2.35;;;20.80;73.20;;;;;;4012308;29;20065;-56
2023/09/19 10:35:04;;;;;;;3.83;1.73;;;20.80;73.10;;;;;;4012140;29;20061;-56
2023/09/19 10:37:51;;;;;;;8.05;2.50;;;20.80;73.10;;;;;;4011927;29;20109;-56
2023/09/19 10:40:40;;;;;;;10.80;3.25;;;20.80;73.10;;;;;;4011960;29;20599;-56
2023/09/19 10:43:22;;;;;;;9.93;2.13;;;20.80;73.00;;;;;;4000239;29;20532;-56
2023/09/19 10:46:11;;;;;;;11.05;2.47;;;20.80;72.90;;;;;;4003603;29;20060;-56
2023/09/19 10:48:54;;;;;;;7.70;1.98;;;20.80;72.50;;;;;;4004817;29;20781;-55
2023/09/19 10:51:43;;;;;;;4.43;1.38;;;20.80;72.10;;;;;;4022882;29;20405;-57
2023/09/19 10:54:28;;;;;;;10.48;3.30;;;20.80;71.90;;;;;;4012122;29;20064;-56
2023/09/19 10:57:10;;;;;;;6.35;2.15;;;20.80;71.70;;;;;;4012088;29;20056;-61
2023/09/19 11:00:21;;;;;;;4.28;1.42;;;20.80;71.60;;;;;;4011200;29;20053;-61
2023/09/19 11:03:23;;;;;;;6.13;2.30;;;20.80;71.50;;;;;;4011278;29;20056;-61
2023/09/19 11:06:09;;;;;;;7.97;2.42;;;20.80;71.80;;;;;;4010803;29;20063;-61
2023/09/19 11:09:06;;;;;;;8.32;2.47;;;20.80;71.90;;;;;;4012154;29;20197;-60
2023/09/19 11:11:50;;;;;;;4.65;1.63;;;20.80;71.70;;;;;;4011163;29;20116;-60
2023/09/19 11:14:38;;;;;;;6.90;2.00;;;20.80;71.50;;;;;;4012019;29;20603;-60
2023/09/19 11:17:46;;;;;;;10.27;2.03;;;20.80;71.30;;;;;;3997165;29;20581;-61
2023/09/19 11:20:41;;;;;;;5.10;1.50;;;20.80;71.40;;;;;;3995787;29;20144;-61
2023/09/19 11:23:28;;;;;;;6.15;1.45;;;20.80;71.50;;;;;;4013222;29;20064;-60
2023/09/19 11:26:43;;;;;;;10.65;2.13;;;20.80;71.50;;;;;;4010702;29;20065;-61
2023/09/19 11:29:26;;;;;;;7.72;2.30;;;20.80;71.20;;;;;;4011195;29;20390;-61
2023/09/19 11:32:10;;;;;;;6.88;2.35;;;20.80;71.10;;;;;;4013229;29;20048;-61
2023/09/19 11:34:52;;;;;;;9.63;1.73;;;20.80;71.10;;;;;;4014680;29;20064;-60
2023/09/19 11:38:10;;;;;;;4.30;2.13;;;20.80;71.10;;;;;;4014319;29;20061;-61
2023/09/19 11:41:29;;;;;;;7.35;2.20;;;20.70;71.00;;;;;;4013951;29;22207;-60
2023/09/19 11:44:38;;;;;;;8.20;2.33;;;20.70;71.00;;;;;;4013733;29;20099;-60
2023/09/19 11:47:20;;;;;;;4.63;1.80;;;20.70;71.10;;;;;;4013614;29;20250;-60
2023/09/19 11:50:03;;;;;;;8.93;2.50;;;20.80;71.30;;;;;;4014836;29;20509;-57
2023/09/19 11:52:44;;;;;;;11.43;2.58;;;20.70;71.40;;;;;;4014619;29;20133;-56
2023/09/19 11:55:26;;;;;;;;;;;20.70;71.30;;;;;;4015064;29;20409;-55
2023/09/19 11:58:09;;;;;;;7.20;2.03;;;20.70;71.40;;;;;;4014582;29;19940;-60
2023/09/19 12:00:58;;;;;;;6.18;2.25;;;20.70;71.50;;;;;;4013254;29;20105;-56
2023/09/19 12:03:43;;;;;;;5.78;1.33;;;20.70;71.60;;;;;;4013894;29;20112;-64
2023/09/19 12:06:29;;;;;;;8.48;1.92;;;20.70;71.60;;;;;;4014201;29;20088;-55
2023/09/19 12:09:16;;;;;;;10.73;2.72;;;20.70;71.50;;;;;;3999740;29;20057;-58
2023/09/19 12:11:58;;;;;;;5.45;1.77;;;20.70;71.40;;;;;;4012713;29;20061;-56
2023/09/19 12:14:43;;;;;;;7.22;2.08;;;20.70;72.20;;;;;;4013871;29;20189;-57
2023/09/19 12:17:35;;;;;;;4.75;1.77;;;20.80;71.40;;;;;;4013275;29;20078;-55
2023/09/19 12:20:17;;;;;;;5.07;2.15;;;20.80;71.50;;;;;;4012595;29;20072;-55
2023/09/19 12:22:58;;;;;;;10.65;2.75;;;20.80;71.30;;;;;;4013705;29;20068;-57
2023/09/19 12:25:46;;;;;;;6.80;1.85;;;20.80;71.20;;;;;;4013924;29;20491;-56
2023/09/19 12:28:30;;;;;;;8.40;2.10;;;20.80;71.10;;;;;;3998357;29;20061;-58
2023/09/19 12:31:13;;;;;;;6.40;1.42;;;20.80;71.10;;;;;;4013995;29;20509;-58
2023/09/19 12:34:01;;;;;;;4.57;1.38;;;20.80;71.10;;;;;;4013840;29;20060;-58
2023/09/19 12:36:42;;;;;;;4.22;1.50;;;20.80;71.10;;;;;;4013816;29;20064;-58
2023/09/19 12:39:26;;;;;;;7.20;1.67;;;20.80;71.10;;;;;;4012969;29;20565;-58
2023/09/19 12:42:09;;;;;;;10.23;2.13;;;20.80;71.20;;;;;;4013117;29;20060;-58
2023/09/19 12:44:55;;;;;;;5.63;1.90;;;20.80;71.40;;;;;;4012574;29;20080;-58
2023/09/19 12:47:36;;;;;;;6.45;1.88;;;20.80;71.50;;;;;;4012732;29;20116;-59
2023/09/19 12:50:19;;;;;;;5.78;2.15;;;20.70;71.80;;;;;;4014234;29;20073;-59
2023/09/19 12:53:00;;;;;;;6.47;1.85;;;20.70;71.80;;;;;;4001986;29;20060;-58
2023/09/19 12:55:42;;;;;;;;;;;20.80;71.90;;;;;;4014360;29;20081;-59
2023/09/19 12:58:23;;;;;;;5.22;1.40;;;20.70;72.00;;;;;;4013318;29;19951;-59
2023/09/19 13:01:15;;;;;;;5.15;1.70;;;20.70;72.10;;;;;;4013306;29;20610;-59
2023/09/19 13:04:15;;;;;;;6.80;2.42;;;20.70;72.20;;;;;;4012315;29;20084;-58
2023/09/19 13:07:00;;;;;;;6.40;2.05;;;20.70;72.30;;;;;;3997565;29;20414;-59
2023/09/19 13:10:07;;;;;;;5.63;1.45;;;20.70;72.50;;;;;;4013038;29;20061;-58
2023/09/19 13:12:48;;;;;;;6.30;1.33;;;20.70;72.70;;;;;;4010720;29;20124;-60
2023/09/19 13:15:29;;;;;;;5.00;1.08;;;20.60;72.70;;;;;;4012683;29;20052;-58
2023/09/19 13:18:13;;;;;;;3.13;2.22;;;20.60;72.70;;;;;;4012525;29;20061;-59
2023/09/19 13:21:10;;;;;;;8.32;2.00;;;20.60;72.80;;;;;;4011778;29;20123;-58
2023/09/19 13:23:54;;;;;;;4.25;1.80;;;20.60;73.00;;;;;;4010644;29;20221;-59
2023/09/19 13:26:35;;;;;;;4.40;1.15;;;20.60;73.10;;;;;;4011700;29;20108;-59
2023/09/19 13:29:18;;;;;;;6.57;1.73;;;20.50;73.10;;;;;;4011030;29;20177;-59
2023/09/19 13:32:02;;;;;;;5.97;1.50;;;20.50;74.20;;;;;;4011389;29;20112;-60
2023/09/19 13:34:43;;;;;;;5.82;1.23;;;20.50;73.30;;;;;;4009863;29;20068;-60
2023/09/19 13:37:24;;;;;;;3.42;1.35;;;20.50;73.40;;;;;;3995631;29;20058;-59
2023/09/19 13:40:08;;;;;;;3.72;1.15;;;20.50;73.50;;;;;;4000965;29;20190;-58
2023/09/19 13:42:53;;;;;;;3.63;1.55;;;20.50;73.60;;;;;;4011320;29;20068;-58
2023/09/19 13:45:34;;;;;;;3.92;1.40;;;20.50;73.80;;;;;;4011697;29;20088;-59
2023/09/19 13:48:15;;;;;;;13.00;2.80;;;20.50;73.90;;;;;;4011268;29;20068;-58
2023/09/19 13:50:56;;;;;;;3.50;1.25;;;20.40;75.00;;;;;;4011347;29;20056;-59
2023/09/19 13:53:37;;;;;;;;;;;20.40;74.50;;;;;;4010484;29;20068;-59
2023/09/19 13:56:20;;;;;;;3.92;1.42;;;20.40;74.70;;;;;;4010315;29;20715;-59
2023/09/19 13:59:01;;;;;;;7.38;1.65;;;20.40;75.10;;;;;;4011363;29;20484;-58
2023/09/19 14:01:42;;;;;;;;;;;20.40;75.40;;;;;;4010127;29;20480;-59
2023/09/19 14:04:23;;;;;;;4.25;1.45;;;20.40;75.60;;;;;;4009525;29;19935;-58
2023/09/19 14:07:04;;;;;;;4.90;1.63;;;20.40;75.80;;;;;;4010285;29;20666;-59
2023/09/19 14:09:46;;;;;;;7.03;1.60;;;20.40;76.00;;;;;;4010423;29;20517;-58
2023/09/19 14:12:29;;;;;;;4.18;1.27;;;20.40;76.20;;;;;;3994973;29;20583;-59
2023/09/19 14:15:10;;;;;;;7.07;1.80;;;20.40;76.30;;;;;;3984799;29;20186;-58
2023/09/19 14:17:51;;;;;;;3.83;1.60;;;20.40;76.30;;;;;;3995838;29;20517;-59
2023/09/19 14:20:32;;;;;;;4.55;1.50;;;20.40;76.50;;;;;;4003083;29;20100;-59
2023/09/19 14:23:14;;;;;;;5.78;1.77;;;20.40;76.50;;;;;;4009845;29;20060;-59